メインページ
METAR-TAF:

METAR-TAF

空港 :

ジブラルタル国際空港

ジブラルタル, ジブラルタル

緯度: 36-09N, 経度: 005-21W, 海抜: 5m

現時点の気象観測

当レポートは4時間13分前の08:50(UTC)に作成
の風 10kt
気温 16°C
湿度 77%
気圧 1023 hPa
視程10km以上
高度1600ftの雲は散在している
高度2400ftの千切れ雲あり

METAR: LXGB 060850Z 08010KT 9999 SCT016 BKN024 16/12 Q1023 RMK WHT

時間: 15:03 (13:03 UTC)

予報

当レポートは23時間38分前の13:25(UTC)に作成
予報は05日の 15時(UTC)から 05日の 23時(UTC)まで有効
の風 12kt
視程10km以上
高度2000ftの千切れ雲あり
確率 40% :
05日の 15時(UTC)から 05日の 23時(UTC)まで一時的に
高度1400ftの千切れ雲あり

TAF: LXGB 051325Z 0515/0523 08012KT 9999 BKN020 PROB40 TEMPO 0515/0523 BKN014

4,000以上の空港の気象観測と天気予報(METAR報とTAF報)

利用可能な観測所は地図上に黄色い丸と赤い丸で示す。

丸の上にカーソルを重ねると観測所名を参照できる。

次にクリックすると気象観測と天気予報を参照できる。

マップの切り替え:黒色「×」印の緑ボタンをクリックして拡大、「-」印の緑ボタンをクリックして縮小、緑色の三角印をクリックして隣りの地図に切り替え


METAR-TAF: